createdAt,value
2022-12-18T00:02:13.400Z,-0.67
2022-12-18T00:04:39.869Z,-0.68
2022-12-18T00:07:06.273Z,-0.71
2022-12-18T00:09:39.545Z,-0.69
2022-12-18T00:14:42.974Z,-0.74
2022-12-18T00:17:12.406Z,-0.74
2022-12-18T00:19:38.740Z,-0.79
2022-12-18T00:22:05.948Z,-0.83
2022-12-18T00:24:32.424Z,-0.88
2022-12-18T00:26:58.892Z,-0.92
2022-12-18T00:29:25.297Z,-0.94
2022-12-18T00:31:51.720Z,-0.91
2022-12-18T00:34:18.163Z,-0.89
2022-12-18T00:36:44.600Z,-0.90
2022-12-18T00:39:13.133Z,-0.89
2022-12-18T00:41:58.661Z,-0.88
2022-12-18T00:44:25.587Z,-0.90
2022-12-18T00:46:51.937Z,-1.00
2022-12-18T00:49:19.947Z,-1.03
2022-12-18T00:51:46.996Z,-1.00
2022-12-18T00:54:13.989Z,-1.01
2022-12-18T00:56:48.239Z,-1.03
2022-12-18T00:59:15.076Z,-1.06
2022-12-18T01:01:41.561Z,-1.07
2022-12-18T01:04:08.236Z,-1.10
2022-12-18T01:06:34.607Z,-1.13
2022-12-18T01:09:01.811Z,-1.12
2022-12-18T01:11:28.162Z,-1.10
2022-12-18T01:13:55.115Z,-1.10
2022-12-18T01:16:22.938Z,-1.15
2022-12-18T01:18:52.966Z,-1.17
2022-12-18T01:21:19.713Z,-1.15
2022-12-18T01:23:46.754Z,-1.14
2022-12-18T01:26:15.874Z,-1.14
2022-12-18T01:28:42.810Z,-1.11
2022-12-18T01:31:20.081Z,-1.08
2022-12-18T01:33:48.405Z,-1.13
2022-12-18T01:36:32.736Z,-1.16
2022-12-18T01:39:06.418Z,-1.15
2022-12-18T01:42:15.480Z,-1.16
2022-12-18T01:45:14.255Z,-1.32
2022-12-18T01:47:45.410Z,-1.40
2022-12-18T01:50:16.749Z,-1.41
2022-12-18T01:52:47.696Z,-1.42
2022-12-18T01:55:17.255Z,-1.41
2022-12-18T01:57:43.786Z,-1.42
2022-12-18T02:00:21.011Z,-1.38
2022-12-18T02:02:48.039Z,-1.36
2022-12-18T02:05:34.059Z,-1.37
2022-12-18T02:08:13.955Z,-1.38
2022-12-18T02:11:19.355Z,-1.45
2022-12-18T02:14:20.087Z,-1.47
2022-12-18T02:17:26.167Z,-1.49
2022-12-18T02:20:17.276Z,-1.44
2022-12-18T02:22:52.317Z,-1.44
2022-12-18T02:25:40.041Z,-1.45
2022-12-18T02:28:12.541Z,-1.45
2022-12-18T02:30:42.113Z,-1.43
2022-12-18T02:33:12.851Z,-1.40
2022-12-18T02:35:41.798Z,-1.43
2022-12-18T02:38:08.702Z,-1.47
2022-12-18T02:40:38.099Z,-1.47
2022-12-18T02:43:14.013Z,-1.48
2022-12-18T02:45:59.244Z,-1.51
2022-12-18T02:48:34.064Z,-1.51
2022-12-18T02:51:19.533Z,-1.51
2022-12-18T02:53:57.136Z,-1.49
2022-12-18T02:56:36.113Z,-1.48
2022-12-18T02:59:14.783Z,-1.45
2022-12-18T03:01:56.838Z,-1.45
2022-12-18T03:04:31.553Z,-1.45
2022-12-18T03:07:04.194Z,-1.42
2022-12-18T03:09:44.437Z,-1.43
2022-12-18T03:12:26.306Z,-1.44
2022-12-18T03:15:18.055Z,-1.45
2022-12-18T03:17:56.522Z,-1.47
2022-12-18T03:20:27.939Z,-1.52
2022-12-18T03:23:06.059Z,-1.59
2022-12-18T03:25:35.959Z,-1.66
2022-12-18T03:28:04.136Z,-1.64
2022-12-18T03:30:33.570Z,-1.68
2022-12-18T03:33:16.237Z,-1.76
2022-12-18T03:35:45.575Z,-1.80
2022-12-18T03:38:13.765Z,-1.83
2022-12-18T03:40:51.114Z,-1.85
2022-12-18T03:43:37.641Z,-1.86
2022-12-18T03:46:34.650Z,-1.93
2022-12-18T03:49:24.379Z,-2.02
2022-12-18T03:52:05.633Z,-1.99
2022-12-18T03:54:34.792Z,-1.94
2022-12-18T03:57:19.196Z,-1.90
2022-12-18T03:59:49.574Z,-1.85
2022-12-18T04:02:18.785Z,-1.84
2022-12-18T04:04:51.515Z,-1.83
2022-12-18T04:07:19.195Z,-1.81
2022-12-18T04:09:46.993Z,-1.82
2022-12-18T04:12:14.069Z,-1.78
2022-12-18T04:14:40.722Z,-1.76
2022-12-18T04:17:08.862Z,-1.75
2022-12-18T04:19:35.369Z,-1.74
2022-12-18T04:22:02.951Z,-1.76
2022-12-18T04:24:34.634Z,-1.79
2022-12-18T04:27:10.635Z,-1.84
2022-12-18T04:29:43.062Z,-1.82
2022-12-18T04:32:10.219Z,-1.83
2022-12-18T04:34:37.795Z,-1.83
2022-12-18T04:37:05.166Z,-1.85
2022-12-18T04:39:32.584Z,-1.83
2022-12-18T04:42:04.374Z,-1.86
2022-12-18T04:44:30.803Z,-1.95
2022-12-18T04:46:57.143Z,-1.96
2022-12-18T04:49:23.743Z,-1.99
2022-12-18T04:51:50.186Z,-1.98
2022-12-18T04:54:16.585Z,-1.98
2022-12-18T04:56:43.060Z,-2.01
2022-12-18T04:59:09.411Z,-2.00
2022-12-18T05:01:35.968Z,-1.99
2022-12-18T05:04:03.726Z,-2.04
2022-12-18T05:06:30.324Z,-2.10
2022-12-18T05:08:56.847Z,-2.10
2022-12-18T05:11:23.518Z,-2.14
2022-12-18T05:13:49.867Z,-2.15
2022-12-18T05:16:16.308Z,-2.20
2022-12-18T05:18:43.002Z,-2.22
2022-12-18T05:21:09.853Z,-2.21
2022-12-18T05:23:37.026Z,-2.22
2022-12-18T05:26:06.313Z,-2.22
2022-12-18T05:28:36.537Z,-2.29
2022-12-18T05:31:05.080Z,-2.32
2022-12-18T05:33:33.792Z,-2.30
2022-12-18T05:36:02.277Z,-2.24
2022-12-18T05:38:29.957Z,-2.24
2022-12-18T05:40:57.133Z,-2.24
2022-12-18T05:43:25.471Z,-2.26
2022-12-18T05:45:53.548Z,-2.30
2022-12-18T05:48:20.586Z,-2.29
2022-12-18T05:50:48.567Z,-2.28
2022-12-18T05:53:16.691Z,-2.30
2022-12-18T05:55:44.703Z,-2.29
2022-12-18T05:58:12.587Z,-2.30
2022-12-18T06:00:40.797Z,-2.35
2022-12-18T06:03:08.892Z,-2.36
2022-12-18T06:05:37.719Z,-2.35
2022-12-18T06:08:04.528Z,-2.37
2022-12-18T06:10:31.374Z,-2.41
2022-12-18T06:12:57.855Z,-2.41
2022-12-18T06:15:24.222Z,-2.41
2022-12-18T06:17:50.812Z,-2.37
2022-12-18T06:20:17.553Z,-2.35
2022-12-18T06:22:44.588Z,-2.30
2022-12-18T06:25:11.270Z,-2.26
2022-12-18T06:27:38.373Z,-2.21
2022-12-18T06:30:05.846Z,-2.19
2022-12-18T06:32:32.276Z,-2.18
2022-12-18T06:34:58.669Z,-2.18
2022-12-18T06:37:26.976Z,-2.20
2022-12-18T06:39:54.301Z,-2.29
2022-12-18T06:42:20.765Z,-2.31
2022-12-18T06:44:47.104Z,-2.32
2022-12-18T06:47:13.542Z,-2.31
2022-12-18T06:49:39.886Z,-2.36
2022-12-18T06:52:06.292Z,-2.35
2022-12-18T06:54:32.760Z,-2.44
2022-12-18T06:56:59.236Z,-2.51
2022-12-18T06:59:25.843Z,-2.58
2022-12-18T07:01:53.037Z,-2.69
2022-12-18T07:04:19.486Z,-2.74
2022-12-18T07:06:46.077Z,-2.67
2022-12-18T07:09:12.425Z,-2.62
2022-12-18T07:11:38.890Z,-2.59
2022-12-18T07:14:05.695Z,-2.60
2022-12-18T07:16:32.083Z,-2.57
2022-12-18T07:18:58.486Z,-2.55
2022-12-18T07:21:26.743Z,-2.60
2022-12-18T07:23:53.434Z,-2.61
2022-12-18T07:26:21.918Z,-2.58
2022-12-18T07:28:49.357Z,-2.56
2022-12-18T07:31:19.557Z,-2.57
2022-12-18T07:33:48.842Z,-2.56
2022-12-18T07:36:15.554Z,-2.53
2022-12-18T07:38:42.170Z,-2.49
2022-12-18T07:41:11.302Z,-2.48
2022-12-18T07:43:39.291Z,-2.45
2022-12-18T07:46:06.463Z,-2.42
2022-12-18T07:48:33.065Z,-2.42
2022-12-18T07:51:09.197Z,-2.51
2022-12-18T07:53:39.164Z,-2.56
2022-12-18T07:58:55.778Z,-2.66
2022-12-18T08:01:22.310Z,-2.63
2022-12-18T08:03:48.903Z,-2.63
2022-12-18T08:06:16.738Z,-2.76
2022-12-18T08:08:43.397Z,-2.77
2022-12-18T08:11:09.836Z,-2.78
2022-12-18T08:13:36.324Z,-2.75
2022-12-18T08:16:05.611Z,-2.74
2022-12-18T08:18:34.730Z,-2.67
2022-12-18T08:21:12.370Z,-2.64
2022-12-18T08:23:42.925Z,-2.61
2022-12-18T08:26:11.168Z,-2.55
2022-12-18T08:28:37.553Z,-2.52
2022-12-18T08:31:04.828Z,-2.50
2022-12-18T08:33:31.492Z,-2.52
2022-12-18T08:36:00.129Z,-2.49
2022-12-18T08:38:27.516Z,-2.36
2022-12-18T08:41:01.327Z,-2.23
2022-12-18T08:43:47.026Z,-2.14
2022-12-18T08:46:13.859Z,-2.05
2022-12-18T08:48:40.266Z,-2.02
2022-12-18T08:51:06.648Z,-2.04
2022-12-18T08:53:35.815Z,-2.04
2022-12-18T08:56:03.050Z,-2.06
2022-12-18T08:58:29.897Z,-2.08
2022-12-18T09:01:02.813Z,-2.12
2022-12-18T09:03:29.392Z,-2.17
2022-12-18T09:05:55.854Z,-2.09
2022-12-18T09:08:22.255Z,-1.98
2022-12-18T09:10:50.522Z,-1.94
2022-12-18T09:13:18.301Z,-1.90
2022-12-18T09:15:53.203Z,-1.96
2022-12-18T09:18:21.281Z,-1.98
2022-12-18T09:20:47.924Z,-1.88
2022-12-18T09:23:14.836Z,-1.83
2022-12-18T09:25:42.582Z,-1.76
2022-12-18T09:28:14.296Z,-1.72
2022-12-18T09:30:45.199Z,-1.63
2022-12-18T09:33:11.872Z,-1.55
2022-12-18T09:35:41.465Z,-1.47
2022-12-18T09:38:12.524Z,-1.43
2022-12-18T09:40:52.149Z,-1.54
2022-12-18T09:43:28.065Z,-1.60
2022-12-18T09:46:03.292Z,-1.49
2022-12-18T09:48:35.698Z,-1.38
2022-12-18T09:51:10.017Z,-1.22
2022-12-18T09:53:41.594Z,-1.06
2022-12-18T09:56:16.798Z,-0.97
2022-12-18T09:58:51.146Z,-0.95
2022-12-18T10:01:23.699Z,-0.88
2022-12-18T10:03:51.354Z,-0.86
2022-12-18T10:06:43.726Z,-0.81
2022-12-18T10:09:18.374Z,-0.69
2022-12-18T10:11:55.276Z,-0.44
2022-12-18T10:14:45.740Z,-0.10
2022-12-18T10:17:36.734Z,0.32
2022-12-18T10:20:11.372Z,0.69
2022-12-18T10:22:46.761Z,1.02
2022-12-18T10:25:39.682Z,1.36
2022-12-18T10:28:15.533Z,1.54
2022-12-18T10:30:43.512Z,1.39
2022-12-18T10:33:16.835Z,1.33
2022-12-18T10:35:45.302Z,1.25
2022-12-18T10:38:14.591Z,1.16
2022-12-18T10:41:00.045Z,1.08
2022-12-18T10:43:37.059Z,1.03
2022-12-18T10:46:09.450Z,1.00
2022-12-18T10:48:48.140Z,1.03
2022-12-18T10:51:40.864Z,0.98
2022-12-18T10:54:15.974Z,0.93
2022-12-18T10:56:43.161Z,0.88
2022-12-18T10:59:12.961Z,0.65
2022-12-18T11:01:59.282Z,0.55
2022-12-18T11:04:28.547Z,0.63
2022-12-18T11:07:06.912Z,0.81
2022-12-18T11:09:40.790Z,0.79
2022-12-18T11:12:19.232Z,0.66
2022-12-18T11:14:51.684Z,0.64
2022-12-18T11:17:35.926Z,0.68
2022-12-18T11:20:07.909Z,0.74
2022-12-18T11:22:39.189Z,0.87
2022-12-18T11:28:04.790Z,1.25
2022-12-18T11:30:36.556Z,1.35
2022-12-18T11:33:07.785Z,1.47
2022-12-18T11:35:40.981Z,1.43
2022-12-18T11:38:19.484Z,1.46
2022-12-18T11:40:52.491Z,1.44
2022-12-18T11:43:28.656Z,1.26
2022-12-18T11:46:05.574Z,1.07
2022-12-18T11:48:39.090Z,1.13
2022-12-18T11:51:14.906Z,1.38
2022-12-18T11:53:41.321Z,1.59
2022-12-18T11:56:30.681Z,2.02
2022-12-18T11:59:26.592Z,2.53
2022-12-18T12:01:59.727Z,2.98
2022-12-18T12:04:32.857Z,3.04
2022-12-18T12:07:08.464Z,2.97
2022-12-18T12:10:02.250Z,2.91
2022-12-18T12:12:58.909Z,2.79
2022-12-18T12:15:44.959Z,2.69
2022-12-18T12:18:20.458Z,2.39
2022-12-18T12:20:55.938Z,2.11
2022-12-18T12:23:44.661Z,2.08
2022-12-18T12:26:16.716Z,2.12
2022-12-18T12:29:04.393Z,2.18
2022-12-18T12:31:52.565Z,2.24
2022-12-18T12:34:43.198Z,2.27
2022-12-18T12:37:34.155Z,2.21
2022-12-18T12:40:11.007Z,2.05
2022-12-18T12:43:15.803Z,1.94
2022-12-18T12:46:05.911Z,1.84
2022-12-18T12:48:43.317Z,1.78
2022-12-18T12:51:21.863Z,1.89
2022-12-18T12:53:49.694Z,2.10
2022-12-18T12:56:20.071Z,2.27
2022-12-18T12:59:14.186Z,2.37
2022-12-18T13:01:59.233Z,2.43
2022-12-18T13:05:02.274Z,2.40
2022-12-18T13:07:51.067Z,2.37
2022-12-18T13:10:17.849Z,2.36
2022-12-18T13:13:47.049Z,2.34
2022-12-18T13:16:08.422Z,2.35
2022-12-18T13:18:35.613Z,2.25
2022-12-18T13:21:03.838Z,2.15
2022-12-18T13:23:35.222Z,2.04
2022-12-18T13:26:09.008Z,1.94
2022-12-18T13:28:47.742Z,1.83
2022-12-18T13:34:32.223Z,1.63
2022-12-18T13:37:33.709Z,1.47
2022-12-18T13:40:00.156Z,1.45
2022-12-18T13:42:57.592Z,1.46
2022-12-18T13:45:38.087Z,1.41
2022-12-18T13:48:12.034Z,1.40
2022-12-18T13:50:39.807Z,1.41
2022-12-18T13:53:06.287Z,1.37
2022-12-18T13:55:33.154Z,1.30
2022-12-18T13:58:06.845Z,1.24
2022-12-18T14:00:34.140Z,1.21
2022-12-18T14:03:01.315Z,1.16
2022-12-18T14:05:32.553Z,1.10
2022-12-18T14:08:14.937Z,0.96
2022-12-18T14:10:48.700Z,0.92
2022-12-18T14:13:42.719Z,0.75
2022-12-18T14:16:15.116Z,0.71
2022-12-18T14:18:45.332Z,0.67
2022-12-18T14:21:20.768Z,0.67
2022-12-18T14:23:47.487Z,0.56
2022-12-18T14:26:29.828Z,0.49
2022-12-18T14:29:04.502Z,0.47
2022-12-18T14:31:32.620Z,0.37
2022-12-18T14:33:58.986Z,0.34
2022-12-18T14:36:28.267Z,0.39
2022-12-18T14:38:56.960Z,0.40
2022-12-18T14:41:25.002Z,0.38
2022-12-18T14:43:53.756Z,0.38
2022-12-18T14:46:40.500Z,0.38
2022-12-18T14:49:34.162Z,0.36
2022-12-18T14:52:06.656Z,0.36
2022-12-18T14:54:39.206Z,0.35
2022-12-18T14:57:19.209Z,0.25
2022-12-18T14:59:45.683Z,0.02
2022-12-18T15:02:22.510Z,0.02
2022-12-18T15:05:06.134Z,0.06
2022-12-18T15:07:47.913Z,-0.05
2022-12-18T15:10:17.715Z,-0.09
2022-12-18T15:12:46.518Z,-0.05
2022-12-18T15:15:35.227Z,-0.01
2022-12-18T15:18:09.524Z,-0.05
2022-12-18T15:20:42.993Z,-0.01
2022-12-18T15:23:22.689Z,0.02
2022-12-18T15:26:06.078Z,0.01
2022-12-18T15:28:37.841Z,-0.04
2022-12-18T15:31:32.991Z,-0.05
2022-12-18T15:34:00.371Z,-0.09
2022-12-18T15:36:29.018Z,-0.07
2022-12-18T15:39:04.049Z,-0.06
2022-12-18T15:41:34.854Z,-0.04
2022-12-18T15:44:03.597Z,-0.02
2022-12-18T15:46:31.628Z,-0.03
2022-12-18T15:49:02.115Z,-0.03
2022-12-18T15:51:39.457Z,0.02
2022-12-18T15:54:10.675Z,0.04
2022-12-18T15:56:56.060Z,0.02
2022-12-18T15:59:24.069Z,0.02
2022-12-18T16:01:53.821Z,0.07
2022-12-18T16:04:22.285Z,0.10
2022-12-18T16:09:36.486Z,0.17
2022-12-18T16:12:03.144Z,0.19
2022-12-18T16:14:30.788Z,0.19
2022-12-18T16:17:02.815Z,0.20
2022-12-18T16:19:30.309Z,0.23
2022-12-18T16:21:58.517Z,0.25
2022-12-18T16:24:27.883Z,0.25
2022-12-18T16:26:55.270Z,0.27
2022-12-18T16:29:28.541Z,0.31
2022-12-18T16:31:55.969Z,0.32
2022-12-18T16:34:29.266Z,0.31
2022-12-18T16:37:03.297Z,0.30
2022-12-18T16:39:32.886Z,0.28
2022-12-18T16:42:00.042Z,0.28
2022-12-18T16:44:28.734Z,0.27
2022-12-18T16:46:55.427Z,0.27
2022-12-18T16:49:24.638Z,0.25
2022-12-18T16:51:51.128Z,0.22
2022-12-18T16:54:19.616Z,0.21
2022-12-18T16:56:49.695Z,0.21
2022-12-18T16:59:16.370Z,0.24
2022-12-18T17:01:42.962Z,0.25
2022-12-18T17:04:09.653Z,0.19
2022-12-18T17:06:40.815Z,0.19
2022-12-18T17:09:09.470Z,0.17
2022-12-18T17:11:36.459Z,0.16
2022-12-18T17:14:07.967Z,0.20
2022-12-18T17:16:34.489Z,0.22
2022-12-18T17:19:01.926Z,0.23
2022-12-18T17:21:29.009Z,0.22
2022-12-18T17:23:55.385Z,0.22
2022-12-18T17:26:21.890Z,0.22
2022-12-18T17:28:48.227Z,0.23
2022-12-18T17:31:19.684Z,0.15
2022-12-18T17:33:46.732Z,0.15
2022-12-18T17:36:13.907Z,0.10
2022-12-18T17:38:43.423Z,0.05
2022-12-18T17:41:11.535Z,0.08
2022-12-18T17:43:47.802Z,0.06
2022-12-18T17:46:14.989Z,0.07
2022-12-18T17:48:41.748Z,0.07
2022-12-18T17:51:09.866Z,0.04
2022-12-18T17:53:39.550Z,0.06
2022-12-18T17:56:08.477Z,0.09
2022-12-18T17:58:37.371Z,0.04
2022-12-18T18:01:06.630Z,0.05
2022-12-18T18:03:34.276Z,0.05
2022-12-18T18:06:02.405Z,0.09
2022-12-18T18:08:29.451Z,0.06
2022-12-18T18:11:15.888Z,-0.05
2022-12-18T18:14:00.686Z,-0.11
2022-12-18T18:16:37.751Z,-0.11
2022-12-18T18:19:08.249Z,-0.09
2022-12-18T18:21:38.000Z,-0.11
2022-12-18T18:24:05.353Z,-0.05
2022-12-18T18:26:33.488Z,-0.06
2022-12-18T18:29:02.474Z,-0.10
2022-12-18T18:31:31.885Z,-0.16
2022-12-18T18:33:58.542Z,-0.13
2022-12-18T18:36:25.519Z,-0.17
2022-12-18T18:38:52.054Z,-0.08
2022-12-18T18:41:19.254Z,-0.09
2022-12-18T18:43:46.057Z,-0.12
2022-12-18T18:46:14.627Z,-0.09
2022-12-18T18:48:41.772Z,-0.17
2022-12-18T18:51:15.310Z,-0.20
2022-12-18T18:53:49.690Z,-0.19
2022-12-18T18:56:56.465Z,-0.10
2022-12-18T18:59:04.723Z,-0.05
2022-12-18T19:01:31.606Z,-0.07
2022-12-18T19:03:58.175Z,-0.16
2022-12-18T19:06:27.220Z,-0.10
2022-12-18T19:08:56.030Z,-0.03
2022-12-18T19:11:42.019Z,-0.03
2022-12-18T19:14:10.336Z,-0.11
2022-12-18T19:16:37.649Z,-0.10
2022-12-18T19:19:04.774Z,-0.07
2022-12-18T19:21:34.117Z,-0.07
2022-12-18T19:24:02.731Z,0.00
2022-12-18T19:26:30.213Z,-0.06
2022-12-18T19:29:08.329Z,-0.09
2022-12-18T19:31:36.927Z,-0.11
2022-12-18T19:34:07.947Z,-0.15
2022-12-18T19:36:37.486Z,-0.14
2022-12-18T19:39:10.305Z,-0.13
2022-12-18T19:41:37.116Z,-0.17
2022-12-18T19:44:07.388Z,-0.19
2022-12-18T19:46:35.817Z,-0.19
2022-12-18T19:49:02.756Z,-0.17
2022-12-18T19:51:31.387Z,-0.15
2022-12-18T19:54:00.529Z,-0.26
2022-12-18T19:56:35.168Z,-0.29
2022-12-18T19:59:03.526Z,-0.30
2022-12-18T20:01:34.272Z,-0.23
2022-12-18T20:04:03.954Z,-0.16
2022-12-18T20:06:49.764Z,-0.18
2022-12-18T20:09:16.547Z,-0.18
2022-12-18T20:11:43.255Z,-0.30
2022-12-18T20:14:14.426Z,-0.30
2022-12-18T20:16:43.544Z,-0.29
2022-12-18T20:19:12.014Z,-0.28
2022-12-18T20:21:38.894Z,-0.21
2022-12-18T20:24:06.903Z,-0.17
2022-12-18T20:26:33.338Z,-0.15
2022-12-18T20:28:59.858Z,-0.17
2022-12-18T20:31:26.338Z,-0.26
2022-12-18T20:33:53.371Z,-0.24
2022-12-18T20:36:25.824Z,-0.20
2022-12-18T20:38:59.309Z,-0.23
2022-12-18T20:41:30.581Z,-0.15
2022-12-18T20:44:04.897Z,-0.03
2022-12-18T20:46:31.353Z,-0.01
2022-12-18T20:48:58.089Z,0.07
2022-12-18T20:51:26.594Z,0.03
2022-12-18T20:53:54.908Z,0.08
2022-12-18T20:56:22.383Z,0.06
2022-12-18T20:58:54.958Z,-0.01
2022-12-18T21:01:22.791Z,0.04
2022-12-18T21:03:49.869Z,0.14
2022-12-18T21:06:18.821Z,0.07
2022-12-18T21:08:45.483Z,0.07
2022-12-18T21:11:36.281Z,0.05
2022-12-18T21:14:05.105Z,0.15
2022-12-18T21:16:32.062Z,0.19
2022-12-18T21:18:58.767Z,0.21
2022-12-18T21:21:26.910Z,0.23
2022-12-18T21:23:53.994Z,0.26
2022-12-18T21:26:27.223Z,0.30
2022-12-18T21:28:55.803Z,0.29
2022-12-18T21:31:23.901Z,0.26
2022-12-18T21:33:50.599Z,0.24
2022-12-18T21:36:19.643Z,0.10
2022-12-18T21:38:46.165Z,0.04
2022-12-18T21:41:37.452Z,-0.04
2022-12-18T21:44:10.610Z,-0.06
2022-12-18T21:46:43.024Z,-0.10
2022-12-18T21:49:10.754Z,-0.08
2022-12-18T21:51:37.462Z,-0.07
2022-12-18T21:54:04.379Z,-0.11
2022-12-18T21:56:46.827Z,-0.13
2022-12-18T21:59:19.225Z,0.01
2022-12-18T22:01:46.543Z,0.01
2022-12-18T22:04:14.034Z,0.07
2022-12-18T22:06:42.523Z,0.14
2022-12-18T22:09:10.704Z,0.16
2022-12-18T22:11:37.307Z,0.10
2022-12-18T22:14:04.071Z,0.07
2022-12-18T22:16:30.513Z,0.03
2022-12-18T22:18:56.881Z,-0.07
2022-12-18T22:21:31.929Z,-0.01
2022-12-18T22:24:02.566Z,0.03
2022-12-18T22:26:33.888Z,-0.02
2022-12-18T22:29:24.254Z,0.02
2022-12-18T22:31:50.782Z,0.15
2022-12-18T22:34:21.919Z,0.23
2022-12-18T22:36:49.377Z,0.28
2022-12-18T22:39:21.892Z,0.28
2022-12-18T22:41:48.850Z,0.28
2022-12-18T22:44:17.533Z,0.32
2022-12-18T22:46:56.211Z,0.30
2022-12-18T22:49:33.893Z,0.30
2022-12-18T22:52:02.557Z,0.27
2022-12-18T22:54:28.960Z,0.16
2022-12-18T22:56:55.495Z,0.15
2022-12-18T22:59:23.255Z,0.22
2022-12-18T23:01:51.459Z,0.20
2022-12-18T23:04:28.384Z,0.24
2022-12-18T23:06:58.715Z,0.26
2022-12-18T23:09:25.115Z,0.31
2022-12-18T23:11:51.558Z,0.32
2022-12-18T23:14:17.936Z,0.33
2022-12-18T23:16:44.560Z,0.34
2022-12-18T23:19:13.053Z,0.36
2022-12-18T23:21:39.573Z,0.27
2022-12-18T23:24:06.315Z,0.21
2022-12-18T23:26:32.843Z,0.24
2022-12-18T23:29:01.571Z,0.26
2022-12-18T23:31:30.899Z,0.28
2022-12-18T23:33:59.001Z,0.27
2022-12-18T23:36:26.010Z,0.32
2022-12-18T23:38:54.742Z,0.35
2022-12-18T23:41:23.184Z,0.33
2022-12-18T23:43:49.906Z,0.34
2022-12-18T23:46:22.004Z,0.37
2022-12-18T23:48:49.681Z,0.37
2022-12-18T23:51:19.319Z,0.41
2022-12-18T23:53:46.144Z,0.42
2022-12-18T23:56:13.852Z,0.37
2022-12-18T23:58:41.270Z,0.43
